Главная страница
METAR-TAF:

METAR-TAF

Аэропорты :

Нджамена, Чад

широта: 12-08N, долгота: 015-02E, высота над уровнем моря: 295 м

Текущие метеонаблюдения

Эта сводка был подготовлена 46 минут назад, в 10:00 UTC
Ветер 14 Узел от северо-северо-восточный, изменяющийся между северо-северо-восточный и восточный
Температура 29°C
Влажность 8%
Давление 1015 hPa
Видимость: 8000 м

METAR: FTTJ 291000Z 02014KT 020V090 8000 NSC 29/M09 Q1015 NOSIG

Время: 11:46 (10:46 UTC)

Прогноз

Эта сводка был подготовлена 5 часа и 46 минут назад, в 05:00 UTC
Прогноз действительный с 29-го 06 UTC до 30-го 12 UTC
Ветер 8 Узел от северо-северо-восточный
Видимость: 8000 м
временами
С 29-го 07 UTC до 29-го 13 UTC
Видимость: 4000 м
мгла

TAF: FTTJ 290500Z 2906/3012 02008KT 8000 NSC TEMPO 2907/2913 4000 HZ

Метеонаблюдения и прогнозы для более 4000 аэропортов (сводки METAR и TAF).

Имеющиеся станции представлены на карте желтыми и красными точками.

Чтобы увидеть название станции, наведите на нее мышь.

Затем щелкните, чтобы увидеть метеонаблюдения и метеопрогнозы.

Управление картой: чтобы увеличить масштаб, щелкните зеленые кнопки с черным крестиком; чтобы уменьшить масштаб, щелкните зеленую кнопку с тире; для просмотра соседних карт щелкайте зеленые стрелки.


METAR-TAF: